Time;durP1;ratioP1;P1;durP2;ratioP2;P2;SDS_P1;SDS_P2;PMS_P1;PMS_P2;Temp;Humidity;BMP_temperature;BMP_pressure;BME280_temperature;BME280_humidity;BME280_pressure;Samples;Min_cycle;Max_cycle;Signal;HPM_P1;HPM_P2
2022/05/28 00:00:41;;;;;;;4.33;1.90;;;;;;;9.06;71.32;99934.67;2242508;77;21068;-74
2022/05/28 00:03:42;;;;;;;8.28;2.30;;;;;;;9.10;71.32;99939.48;2240993;77;20981;-72
2022/05/28 00:06:45;;;;;;;5.65;2.05;;;;;;;9.16;71.20;99935.38;2244534;77;21336;-72
2022/05/28 00:09:46;;;;;;;7.83;2.12;;;;;;;9.21;71.08;99930.42;2241526;77;21029;-76
2022/05/28 00:12:47;;;;;;;7.92;1.82;;;;;;;9.19;70.83;99937.19;2244188;77;21559;-72
2022/05/28 00:15:50;;;;;;;10.28;1.95;;;;;;;9.17;70.71;99937.02;2242109;77;20984;-74
2022/05/28 00:18:54;;;;;;;15.68;2.60;;;;;;;9.15;70.59;99940.31;2245978;77;21048;-72
2022/05/28 00:21:55;;;;;;;7.12;2.30;;;;;;;9.16;70.36;99931.40;2244334;78;21012;-73
2022/05/28 00:24:57;;;;;;;8.83;2.00;;;;;;;9.15;70.27;99927.92;2236847;77;21426;-72
2022/05/28 00:27:58;;;;;;;9.60;2.20;;;;;;;9.16;70.22;99926.11;2245490;77;21010;-72
2022/05/28 00:31:01;;;;;;;7.67;1.90;;;;;;;9.17;70.15;99926.42;2242158;77;20970;-72
2022/05/28 00:34:02;;;;;;;6.55;1.90;;;;;;;9.17;70.25;99923.28;2237143;77;21013;-72
2022/05/28 00:37:04;;;;;;;9.78;1.98;;;;;;;9.23;70.35;99924.95;2235366;78;20932;-74
2022/05/28 00:40:11;;;;;;;11.45;2.72;;;;;;;9.26;70.36;99920.14;2234175;78;21035;-73
2022/05/28 00:43:13;;;;;;;6.70;2.47;;;;;;;9.32;70.34;99916.87;2240522;78;21556;-72
2022/05/28 00:46:25;;;;;;;6.40;2.08;;;;;;;9.36;70.21;99904.95;2245571;77;21016;-74
2022/05/28 00:49:30;;;;;;;8.60;2.72;;;;;;;9.37;70.24;99906.59;2232221;78;21453;-72
2022/05/28 00:52:33;;;;;;;14.07;2.95;;;;;;;9.31;70.19;99917.02;2231725;78;21035;-73
2022/05/28 00:55:36;;;;;;;8.65;2.40;;;;;;;9.26;70.35;99909.55;2241567;77;21057;-73
2022/05/28 00:58:38;;;;;;;8.23;2.35;;;;;;;9.19;70.30;99915.19;2243780;78;20951;-72
2022/05/28 01:01:41;;;;;;;5.72;2.17;;;;;;;9.13;70.34;99911.88;2247087;78;21049;-73
2022/05/28 01:05:03;;;;;;;12.78;2.75;;;;;;;9.07;70.42;99904.09;2234544;78;21025;-74
2022/05/28 01:08:32;;;;;;;8.60;2.33;;;;;;;9.01;70.43;99904.73;2233611;78;20993;-74
2022/05/28 01:11:51;;;;;;;8.60;2.20;;;;;;;8.97;70.54;99898.91;2238941;78;21009;-74
2022/05/28 01:15:19;;;;;;;9.65;2.17;;;;;;;8.90;70.57;99897.10;2236902;78;20963;-73
2022/05/28 01:18:29;;;;;;;9.08;2.58;;;;;;;8.85;70.69;99900.72;2236962;77;21073;-73
2022/05/28 01:21:54;;;;;;;9.55;2.33;;;;;;;8.84;70.89;99898.58;2231395;77;20983;-74
2022/05/28 01:25:03;;;;;;;7.58;2.45;;;;;;;8.85;71.12;99898.08;2238743;78;21065;-73
2022/05/28 01:28:09;;;;;;;7.83;2.00;;;;;;;8.87;71.09;99890.31;2207926;78;20975;-73
2022/05/28 01:31:12;;;;;;;7.42;2.52;;;;;;;8.93;71.02;99891.48;2235790;78;21451;-74
2022/05/28 01:34:16;;;;;;;8.75;2.70;;;;;;;8.97;71.08;99886.19;2248926;77;21076;-73
2022/05/28 01:37:19;;;;;;;8.13;2.30;;;;;;;9.00;71.09;99881.06;2251588;77;21037;-73
2022/05/28 01:40:23;;;;;;;9.45;2.92;;;;;;;9.02;71.08;99891.01;2249805;77;20938;-73
2022/05/28 01:43:27;;;;;;;6.92;2.75;;;;;;;9.04;71.02;99887.20;2210098;77;22164;-73
2022/05/28 01:46:31;;;;;;;10.75;3.17;;;;;;;9.07;70.98;99887.38;2243703;77;20998;-76
2022/05/28 01:49:34;;;;;;;6.08;2.17;;;;;;;9.09;70.94;99878.26;2244072;77;20989;-73
2022/05/28 01:52:36;;;;;;;7.58;2.27;;;;;;;9.12;70.71;99881.94;2241944;77;21005;-73
2022/05/28 01:55:42;;;;;;;5.40;1.87;;;;;;;9.16;70.41;99873.16;2249637;77;20969;-73
2022/05/28 01:58:44;;;;;;;7.17;2.47;;;;;;;9.17;70.37;99867.69;2249767;77;20982;-74
2022/05/28 02:01:46;;;;;;;8.38;2.47;;;;;;;9.18;70.14;99869.86;2245539;77;20990;-74
2022/05/28 02:04:49;;;;;;;7.83;1.98;;;;;;;9.16;70.07;99862.07;2240919;77;20943;-73
2022/05/28 02:07:50;;;;;;;5.75;2.12;;;;;;;9.15;69.93;99869.69;2248323;77;21504;-73
2022/05/28 02:10:57;;;;;;;;;;;;;;;9.17;69.97;99864.22;2255320;77;20941;-72
2022/05/28 02:14:40;;;;;;;7.17;1.98;;;;;;;9.19;69.87;99867.54;2239695;77;20117;-77
2022/05/28 02:18:11;;;;;;;9.03;2.70;;;;;;;9.22;69.88;99861.91;2255649;77;20938;-73
2022/05/28 02:21:24;;;;;;;4.95;2.47;;;;;;;9.18;70.07;99857.45;2244592;77;21579;-74
2022/05/28 02:24:30;;;;;;;9.70;2.50;;;;;;;9.18;69.95;99857.45;2242026;77;21294;-73
2022/05/28 02:27:34;;;;;;;6.90;2.30;;;;;;;9.19;69.96;99852.48;2209470;77;21044;-73
2022/05/28 02:31:02;;;;;;;7.97;2.20;;;;;;;9.13;69.99;99858.94;2254051;77;20961;-74
2022/05/28 02:34:00;;;;;;;10.00;2.08;;;;;;;9.12;69.95;99860.76;2245057;77;21473;-72
2022/05/28 02:37:02;;;;;;;9.90;2.20;;;;;;;9.12;69.93;99857.26;2237241;78;20986;-73
2022/05/28 02:40:05;;;;;;;6.95;1.98;;;;;;;9.14;69.88;99848.16;2240689;78;20950;-73
2022/05/28 02:43:06;;;;;;;5.28;2.00;;;;;;;9.11;69.84;99844.52;2244279;78;20965;-72
2022/05/28 02:46:08;;;;;;;5.08;1.87;;;;;;;9.05;69.93;99847.83;2245144;78;21751;-73
2022/05/28 02:49:09;;;;;;;7.20;2.37;;;;;;;9.04;70.26;99848.83;2236747;78;20969;-73
2022/05/28 02:52:10;;;;;;;10.00;2.02;;;;;;;9.06;70.50;99849.98;2246449;78;21508;-73
2022/05/28 02:55:12;;;;;;;6.47;2.10;;;;;;;9.05;70.45;99847.83;2242760;78;21478;-73
2022/05/28 02:58:15;;;;;;;8.28;2.25;;;;;;;9.01;70.32;99841.22;2230204;78;20947;-74
2022/05/28 03:01:33;;;;;;;6.10;2.22;;;;;;;8.94;70.52;99843.67;2245361;78;21441;-72
2022/05/28 03:04:34;;;;;;;12.70;2.30;;;;;;;8.92;70.70;99841.67;2245950;78;21037;-73
2022/05/28 03:07:35;;;;;;;17.37;2.72;;;;;;;8.91;70.73;99840.53;2238387;78;20914;-75
2022/05/28 03:10:37;;;;;;;8.43;2.52;;;;;;;8.90;70.65;99839.71;2235598;78;21461;-72
2022/05/28 03:13:39;;;;;;;8.48;2.20;;;;;;;8.92;70.60;99839.03;2243011;78;21063;-73
2022/05/28 03:16:42;;;;;;;5.62;1.98;;;;;;;8.90;70.63;99850.80;2242236;78;21028;-72
2022/05/28 03:19:43;;;;;;;7.72;2.20;;;;;;;8.87;70.68;99849.30;2238167;78;21569;-73
2022/05/28 03:22:44;;;;;;;9.93;1.90;;;;;;;9.00;70.81;99850.13;2245724;78;21017;-73
2022/05/28 03:25:46;;;;;;;7.97;2.58;;;;;;;9.21;70.46;99856.30;2251791;78;20938;-73
2022/05/28 03:28:49;;;;;;;8.68;2.20;;;;;;;9.45;70.12;99847.52;2238380;77;21076;-73
2022/05/28 03:31:51;;;;;;;11.22;2.20;;;;;;;9.69;69.83;99844.54;2236311;78;21017;-74
2022/05/28 03:34:54;;;;;;;5.15;2.15;;;;;;;9.92;69.46;99859.23;2244674;77;21314;-73
2022/05/28 03:37:55;;;;;;;10.28;2.27;;;;;;;10.07;68.28;99849.58;2238830;77;21065;-73
2022/05/28 03:40:58;;;;;;;8.95;2.10;;;;;;;9.96;68.43;99853.91;2243784;77;21473;-73
2022/05/28 03:44:00;;;;;;;6.37;1.82;;;;;;;10.26;67.90;99849.19;2243962;77;21022;-78
2022/05/28 03:47:02;;;;;;;6.58;1.67;;;;;;;10.68;68.23;99845.40;2243628;77;21011;-78
2022/05/28 03:50:05;;;;;;;6.80;1.87;;;;;;;11.08;67.64;99847.98;2246239;77;20950;-73
2022/05/28 03:53:07;;;;;;;6.83;1.82;;;;;;;11.39;66.77;99851.39;2240702;77;20965;-76
2022/05/28 03:56:08;;;;;;;10.32;1.98;;;;;;;11.59;66.14;99844.25;2247478;77;22235;-74
2022/05/28 03:59:10;;;;;;;7.83;1.75;;;;;;;11.87;65.61;99851.16;2247135;77;21598;-73
2022/05/28 04:02:11;;;;;;;8.13;1.80;;;;;;;12.15;65.26;99851.88;2244532;77;21525;-74
2022/05/28 04:05:13;;;;;;;6.03;1.82;;;;;;;12.40;64.84;99847.09;2241868;77;21557;-73
2022/05/28 04:08:15;;;;;;;5.15;2.27;;;;;;;12.29;63.98;99851.05;2242306;77;21465;-73
2022/05/28 04:11:17;;;;;;;8.53;2.12;;;;;;;12.27;63.84;99851.72;2246203;77;21052;-74
2022/05/28 04:14:18;;;;;;;8.93;1.77;;;;;;;12.49;62.94;99854.78;2254285;77;20966;-73
2022/05/28 04:17:19;;;;;;;7.03;1.90;;;;;;;12.14;63.04;99860.88;2248816;77;21483;-78
2022/05/28 04:20:21;;;;;;;5.42;2.02;;;;;;;11.97;63.41;99859.71;2253139;77;21491;-73
2022/05/28 04:23:22;;;;;;;3.47;1.70;;;;;;;11.86;62.53;99854.84;2244119;77;20986;-74
2022/05/28 04:26:24;;;;;;;5.03;1.62;;;;;;;11.57;63.00;99855.55;2248266;77;21563;-73
2022/05/28 04:29:25;;;;;;;7.50;1.72;;;;;;;11.31;63.14;99859.92;2242300;77;20993;-73
2022/05/28 04:32:27;;;;;;;6.90;1.90;;;;;;;11.08;63.59;99864.73;2248813;77;20987;-73
2022/05/28 04:35:28;;;;;;;6.37;1.80;;;;;;;11.26;64.17;99863.10;2238738;78;20983;-73
2022/05/28 04:38:30;;;;;;;8.53;1.47;;;;;;;11.87;63.83;99865.27;2240117;78;20970;-74
2022/05/28 04:41:31;;;;;;;3.72;1.40;;;;;;;12.16;61.66;99856.17;2246419;78;21014;-73
2022/05/28 04:44:32;;;;;;;5.83;1.32;;;;;;;11.75;61.73;99848.60;2241819;78;20999;-74
2022/05/28 04:47:34;;;;;;;4.95;1.60;;;;;;;11.51;62.54;99857.09;2242271;78;21049;-73
2022/05/28 04:50:35;;;;;;;9.00;2.00;;;;;;;11.49;62.90;99856.47;2233857;78;20951;-72
2022/05/28 04:53:36;;;;;;;6.42;2.08;;;;;;;11.36;62.60;99860.22;2235452;78;21028;-73
2022/05/28 04:56:38;;;;;;;6.33;1.62;;;;;;;11.25;63.09;99856.66;2232644;78;21014;-73
2022/05/28 04:59:39;;;;;;;9.23;2.40;;;;;;;11.05;63.02;99855.80;2243231;78;21342;-73
2022/05/28 05:02:41;;;;;;;6.92;2.17;;;;;;;10.87;63.04;99854.75;2237444;78;20967;-74
2022/05/28 05:05:42;;;;;;;6.17;2.10;;;;;;;10.66;63.29;99854.02;2241598;78;21109;-77
2022/05/28 05:08:44;;;;;;;5.87;1.62;;;;;;;10.43;63.25;99834.58;2236427;78;21041;-71
2022/05/28 05:11:46;;;;;;;6.08;2.47;;;;;;;10.43;63.25;99834.58;2244489;78;21409;-71
2022/05/28 05:14:47;;;;;;;8.78;2.05;;;;;;;10.34;63.55;99844.40;2244442;78;21005;-73
2022/05/28 05:17:49;;;;;;;8.53;2.05;;;;;;;10.25;63.47;99843.57;2245454;78;20982;-70
2022/05/28 05:20:50;;;;;;;5.30;2.00;;;;;;;10.24;64.00;99850.36;2239176;77;21437;-72
2022/05/28 05:23:51;;;;;;;6.28;1.85;;;;;;;10.27;64.30;99848.72;2238873;78;21004;-75
2022/05/28 05:26:53;;;;;;;8.28;1.95;;;;;;;10.31;64.31;99858.82;2234820;78;20951;-72
2022/05/28 05:29:57;;;;;;;5.00;1.50;;;;;;;10.36;63.88;99853.02;2241593;78;21647;-73
2022/05/28 05:32:58;;;;;;;5.78;1.70;;;;;;;10.34;63.70;99848.87;2237813;78;21013;-73
2022/05/28 05:36:02;;;;;;;6.03;1.55;;;;;;;10.50;63.84;99843.48;2241533;77;21643;-72
2022/05/28 05:39:04;;;;;;;7.15;1.65;;;;;;;10.51;63.69;99851.78;2247726;77;21009;-73
2022/05/28 05:42:06;;;;;;;7.83;1.92;;;;;;;10.54;63.76;99846.13;2244584;77;21543;-74
2022/05/28 05:45:08;;;;;;;9.13;1.95;;;;;;;10.70;63.85;99843.41;2245303;77;20965;-72
2022/05/28 05:48:10;;;;;;;9.63;2.60;;;;;;;10.89;63.92;99838.64;2244647;77;20981;-71
2022/05/28 05:51:15;;;;;;;7.37;2.12;;;;;;;11.70;63.68;99839.01;2243451;77;20939;-72
2022/05/28 05:54:17;;;;;;;9.35;1.95;;;;;;;12.42;61.04;99831.27;2242320;77;21060;-72
2022/05/28 05:57:19;;;;;;;4.42;1.65;;;;;;;12.92;60.99;99838.06;2246173;77;21488;-73
2022/05/28 06:00:20;;;;;;;6.50;1.70;;;;;;;13.39;59.57;99832.72;2246255;77;21059;-69
2022/05/28 06:03:22;;;;;;;6.80;1.87;;;;;;;13.74;59.67;99828.78;2249405;77;20957;-70
2022/05/28 06:06:24;;;;;;;9.45;1.75;;;;;;;14.20;57.93;99825.08;2246893;77;21496;-70
2022/05/28 06:09:25;;;;;;;5.95;1.92;;;;;;;14.49;57.15;99819.97;2241461;77;20986;-69
2022/05/28 06:12:26;;;;;;;6.85;1.82;;;;;;;14.66;55.80;99820.98;2245613;77;20978;-70
2022/05/28 06:15:28;;;;;;;6.60;1.90;;;;;;;14.67;56.34;99826.14;2246948;77;20930;-70
2022/05/28 06:18:30;;;;;;;6.20;1.92;;;;;;;14.84;56.60;99832.42;2243540;77;20958;-68
2022/05/28 06:21:32;;;;;;;6.20;2.00;;;;;;;15.05;55.34;99826.94;2248150;77;20957;-71
2022/05/28 06:24:33;;;;;;;7.30;1.82;;;;;;;14.62;55.28;99830.44;2246492;77;20979;-74
2022/05/28 06:27:35;;;;;;;5.60;1.52;;;;;;;14.11;55.60;99832.42;2240744;77;21008;-76
2022/05/28 06:30:36;;;;;;;9.28;2.02;;;;;;;13.81;55.77;99828.33;2247287;77;20950;-72
2022/05/28 06:33:40;;;;;;;10.55;2.20;;;;;;;13.43;55.98;99836.63;2240095;77;21099;-72
2022/05/28 06:36:42;;;;;;;8.15;2.05;;;;;;;13.00;56.53;99837.44;2246674;77;20943;-73
2022/05/28 06:39:43;;;;;;;6.30;1.57;;;;;;;12.76;56.78;99831.16;2251812;77;21302;-72
2022/05/28 06:42:49;;;;;;;7.17;1.77;;;;;;;12.71;57.32;99825.56;2240874;77;21468;-73
2022/05/28 06:45:50;;;;;;;8.18;1.55;;;;;;;12.81;57.52;99820.77;2247601;77;20971;-72
2022/05/28 06:48:53;;;;;;;3.02;1.30;;;;;;;12.81;57.40;99816.78;2248105;77;21539;-73
2022/05/28 06:51:55;;;;;;;5.92;1.30;;;;;;;13.25;57.57;99811.76;2243909;77;21013;-72
2022/05/28 06:54:56;;;;;;;4.33;1.45;;;;;;;13.20;56.78;99820.83;2244131;77;21005;-72
2022/05/28 06:57:57;;;;;;;7.90;1.67;;;;;;;12.88;57.12;99821.66;2249291;77;21019;-72
2022/05/28 07:01:01;;;;;;;4.83;1.62;;;;;;;12.70;56.83;99818.09;2250172;77;22077;-73
2022/05/28 07:04:04;;;;;;;7.60;1.67;;;;;;;12.63;57.29;99816.36;2237109;77;21574;-75
2022/05/28 07:07:05;;;;;;;8.15;1.50;;;;;;;13.06;57.35;99810.55;2245599;77;20991;-72
2022/05/28 07:10:09;;;;;;;7.72;1.90;;;;;;;13.04;56.87;99819.27;2243771;77;20986;-74
2022/05/28 07:13:11;;;;;;;8.05;1.98;;;;;;;12.78;56.44;99819.79;2241342;77;20966;-72
2022/05/28 07:16:12;;;;;;;5.08;1.57;;;;;;;12.69;57.15;99814.27;2246477;77;21044;-72
2022/05/28 07:19:13;;;;;;;6.90;1.65;;;;;;;12.87;57.93;99816.02;2249519;77;20946;-73
2022/05/28 07:22:15;;;;;;;5.65;1.75;;;;;;;13.20;57.25;99809.66;2249999;77;20985;-72
2022/05/28 07:25:17;;;;;;;6.28;1.57;;;;;;;13.05;56.38;99816.91;2241927;77;21038;-72
2022/05/28 07:28:25;;;;;;;3.65;1.42;;;;;;;12.96;56.89;99807.40;2243124;77;21488;-72
2022/05/28 07:31:26;;;;;;;3.95;2.00;;;;;;;12.93;56.81;99812.59;2248583;77;20997;-75
2022/05/28 07:34:27;;;;;;;6.50;1.55;;;;;;;12.82;56.08;99802.44;2248914;77;21012;-75
2022/05/28 07:37:30;;;;;;;4.75;1.42;;;;;;;12.79;56.18;99799.65;2248585;78;21107;-76
2022/05/28 07:40:34;;;;;;;5.22;1.40;;;;;;;12.73;56.12;99795.08;2240019;78;20973;-74
2022/05/28 07:43:36;;;;;;;7.58;1.20;;;;;;;12.60;55.23;99792.78;2239376;78;21018;-74
2022/05/28 07:46:37;;;;;;;3.87;1.72;;;;;;;12.42;55.21;99800.67;2243446;78;21386;-79
2022/05/28 07:49:39;;;;;;;5.83;1.47;;;;;;;12.33;56.31;99794.63;2245142;78;21056;-77
2022/05/28 07:52:40;;;;;;;6.85;1.75;;;;;;;12.41;56.03;99783.03;2235578;78;20986;-74
2022/05/28 07:55:43;;;;;;;3.22;1.00;;;;;;;12.51;55.65;99778.25;2250382;78;20955;-79
2022/05/28 07:58:45;;;;;;;4.55;1.27;;;;;;;12.62;55.75;99784.11;2245982;78;21073;-78
2022/05/28 08:01:47;;;;;;;2.70;1.20;;;;;;;12.65;54.72;99777.08;2244954;78;21520;-79
2022/05/28 08:04:48;;;;;;;5.17;1.42;;;;;;;12.71;54.85;99767.00;2234336;78;21109;-74
2022/05/28 08:07:49;;;;;;;7.30;1.47;;;;;;;12.63;53.60;99745.31;2240822;78;20934;-73
2022/05/28 08:10:52;;;;;;;4.28;1.32;;;;;;;12.68;54.48;99747.41;2239951;78;21012;-75
2022/05/28 08:13:54;;;;;;;9.95;1.90;;;;;;;12.65;53.51;99767.25;2238969;77;20942;-72
2022/05/28 08:16:57;;;;;;;4.85;1.50;;;;;;;12.62;54.08;99774.80;2239828;78;21061;-72
2022/05/28 08:19:58;;;;;;;2.80;1.20;;;;;;;12.71;53.57;99777.65;2248238;78;20947;-71
2022/05/28 08:23:09;;;;;;;7.50;1.90;;;;;;;13.02;53.76;99776.00;2237539;78;20963;-72
2022/05/28 08:26:12;;;;;;;5.25;1.62;;;;;;;13.79;53.33;99760.52;2239911;78;21009;-72
2022/05/28 08:29:13;;;;;;;3.98;1.47;;;;;;;14.20;51.56;99769.56;2237211;78;21072;-72
2022/05/28 08:32:18;;;;;;;7.35;1.55;;;;;;;14.78;52.85;99765.95;2236822;78;20943;-72
2022/05/28 08:35:19;;;;;;;4.65;1.70;;;;;;;15.44;51.20;99762.52;2247391;77;21049;-71
2022/05/28 08:38:23;;;;;;;5.22;1.52;;;;;;;15.17;50.37;99774.53;2245183;77;20948;-74
2022/05/28 08:41:32;;;;;;;7.53;1.85;;;;;;;14.98;49.32;99776.70;2247143;77;21023;-74
2022/05/28 08:44:39;;;;;;;10.32;1.70;;;;;;;14.53;49.81;99763.05;2250436;77;20979;-72
2022/05/28 08:47:44;;;;;;;9.58;2.15;;;;;;;14.30;50.46;99763.33;2250653;77;20993;-71
2022/05/28 08:50:54;;;;;;;5.37;1.40;;;;;;;14.33;51.38;99771.78;2255788;77;21068;-72
2022/05/28 08:54:09;;;;;;;8.18;1.70;;;;;;;14.55;50.90;99765.80;2251217;77;21024;-73
2022/05/28 08:57:20;;;;;;;2.98;1.65;;;;;;;14.88;50.06;99761.57;2251841;77;21049;-72
2022/05/28 09:00:39;;;;;;;3.15;1.40;;;;;;;15.14;47.58;99761.58;2248231;77;20913;-71
2022/05/28 09:03:58;;;;;;;2.98;1.25;;;;;;;14.75;47.30;99767.20;2251497;77;21016;-69
2022/05/28 09:07:05;;;;;;;6.47;1.37;;;;;;;14.80;49.44;99774.59;2253946;77;20958;-71
2022/05/28 09:10:10;;;;;;;5.33;1.52;;;;;;;15.24;47.75;99772.70;2248274;77;21052;-71
2022/05/28 09:13:26;;;;;;;6.87;1.60;;;;;;;15.36;47.90;99764.05;2247186;77;20958;-72
2022/05/28 09:16:38;;;;;;;3.50;1.30;;;;;;;15.03;47.18;99774.21;2249763;77;22235;-71
2022/05/28 09:19:42;;;;;;;6.28;1.75;;;;;;;14.56;47.28;99765.31;2250083;77;21684;-71
2022/05/28 09:22:44;;;;;;;3.98;1.27;;;;;;;14.45;48.87;99772.53;2248845;77;21020;-72
2022/05/28 09:25:47;;;;;;;2.15;1.15;;;;;;;14.40;48.65;99761.62;2247174;77;21024;-71
2022/05/28 09:29:03;;;;;;;3.25;1.30;;;;;;;14.10;48.35;99768.58;2251006;77;21020;-71
2022/05/28 09:32:29;;;;;;;2.80;1.40;;;;;;;13.76;48.77;99778.23;2246646;77;20939;-71
2022/05/28 09:35:57;;;;;;;5.83;1.20;;;;;;;13.52;48.93;99774.71;2249055;77;20963;-71
2022/05/28 09:39:16;;;;;;;6.10;1.47;;;;;;;13.53;48.80;99769.69;2239525;78;21002;-72
2022/05/28 09:42:32;;;;;;;5.85;1.40;;;;;;;13.36;49.11;99760.64;2245148;78;21029;-71
2022/05/28 09:45:50;;;;;;;6.05;1.40;;;;;;;13.25;50.28;99781.12;2240551;78;20982;-72
2022/05/28 09:49:06;;;;;;;2.92;1.30;;;;;;;13.26;50.49;99777.45;2243818;78;21508;-72
2022/05/28 09:52:10;;;;;;;3.17;0.95;;;;;;;13.28;50.01;99760.78;2223859;78;20990;-70
2022/05/28 09:55:16;;;;;;;6.67;1.60;;;;;;;13.34;50.68;99758.67;2242410;78;21033;-70
2022/05/28 09:58:24;;;;;;;3.90;1.40;;;;;;;13.78;50.88;99758.06;2243127;78;21016;-69
2022/05/28 10:01:27;;;;;;;4.25;1.50;;;;;;;13.85;50.87;99762.42;2235634;78;21049;-70
2022/05/28 10:04:30;;;;;;;3.08;0.90;;;;;;;13.74;50.69;99761.63;2241976;78;21022;-70
2022/05/28 10:07:48;;;;;;;4.05;1.17;;;;;;;13.48;49.93;99770.77;2242546;78;21010;-71
2022/05/28 10:10:55;;;;;;;1.98;0.90;;;;;;;13.43;51.32;99784.66;2236727;78;21499;-72
2022/05/28 10:14:00;;;;;;;4.25;0.82;;;;;;;13.29;51.37;99817.55;2235417;78;20947;-71
2022/05/28 10:17:04;;;;;;;6.60;0.75;;;;;;;12.55;54.10;99836.73;2239195;77;21547;-71
2022/05/28 10:20:16;;;;;;;4.17;0.80;;;;;;;11.85;55.82;99841.17;2238742;78;21017;-71
2022/05/28 10:23:21;;;;;;;2.52;1.20;;;;;;;11.92;58.06;99842.66;2234268;78;20993;-71
2022/05/28 10:26:30;;;;;;;5.00;1.00;;;;;;;11.94;60.44;99843.27;2240811;78;21048;-70
2022/05/28 10:29:38;;;;;;;4.70;1.00;;;;;;;11.73;60.63;99834.15;2237474;78;21020;-72
2022/05/28 10:32:49;;;;;;;4.17;1.20;;;;;;;12.07;61.65;99832.33;2237453;78;20990;-71
2022/05/28 10:35:52;;;;;;;1.85;0.70;;;;;;;12.61;61.32;99834.34;2244863;77;21069;-70
2022/05/28 10:39:14;;;;;;;1.75;0.68;;;;;;;12.99;60.74;99822.99;2252728;77;21553;-71
2022/05/28 10:42:16;;;;;;;2.90;0.90;;;;;;;13.41;60.40;99824.03;2253462;77;21004;-71
2022/05/28 10:45:20;;;;;;;3.58;1.07;;;;;;;13.66;58.86;99817.26;2250740;77;21298;-71
2022/05/28 10:48:33;;;;;;;3.52;0.90;;;;;;;13.99;58.85;99823.30;2251478;77;20945;-71
2022/05/28 10:52:08;;;;;;;6.00;1.00;;;;;;;13.91;58.04;99814.15;2255052;77;21027;-71
2022/05/28 10:55:31;;;;;;;3.27;1.02;;;;;;;13.74;57.92;99816.30;2251699;77;21103;-70
2022/05/28 10:58:57;;;;;;;3.92;1.40;;;;;;;13.59;57.69;99808.89;2250743;77;21048;-72
2022/05/28 11:02:22;;;;;;;3.87;0.80;;;;;;;13.51;57.65;99810.36;2250830;77;21522;-70
2022/05/28 11:05:44;;;;;;;1.05;0.70;;;;;;;13.41;57.39;99806.20;2238645;77;20992;-70
2022/05/28 11:09:06;;;;;;;4.20;1.07;;;;;;;13.37;57.33;99794.26;2251496;77;21050;-70
2022/05/28 11:12:35;;;;;;;2.50;1.10;;;;;;;13.51;56.16;99805.03;2246701;77;21535;-72
2022/05/28 11:16:11;;;;;;;1.50;0.98;;;;;;;14.02;56.27;99809.60;2255604;77;21013;-69
2022/05/28 11:19:56;;;;;;;2.70;1.10;;;;;;;14.63;55.84;99800.84;2253541;77;21016;-71
2022/05/28 11:23:38;;;;;;;2.05;0.93;;;;;;;15.05;52.28;99798.89;2252349;77;20954;-70
2022/05/28 11:27:03;;;;;;;3.55;1.20;;;;;;;15.19;52.75;99785.03;2174409;77;20958;-71
2022/05/28 11:30:21;;;;;;;3.70;1.20;;;;;;;14.97;51.04;99801.75;2253104;77;20958;-70
2022/05/28 11:33:31;;;;;;;2.95;1.00;;;;;;;15.13;50.66;99783.18;2247828;77;21028;-73
2022/05/28 11:36:38;;;;;;;5.35;1.00;;;;;;;15.25;49.47;99789.55;2248059;77;21033;-70
2022/05/28 11:39:59;;;;;;;2.77;1.20;;;;;;;15.43;50.41;99776.92;2240441;78;21001;-73
2022/05/28 11:43:28;;;;;;;4.47;1.10;;;;;;;15.77;50.05;99768.34;2242504;78;21659;-75
2022/05/28 11:47:24;;;;;;;5.30;1.12;;;;;;;15.85;48.03;99763.62;2249765;78;21364;-74
2022/05/28 11:54:14;;;;;;;5.17;1.47;;;;;;;15.14;46.57;99766.92;2246663;78;21539;-74
2022/05/28 11:57:27;;;;;;;1.75;0.98;;;;;;;14.73;48.76;99801.30;2241644;77;21014;-73
2022/05/28 12:00:33;;;;;;;3.65;0.80;;;;;;;14.17;50.17;99795.31;2241811;77;20969;-72
2022/05/28 12:03:34;;;;;;;9.28;1.10;;;;;;;13.51;52.59;99789.86;2244882;78;21004;-72
2022/05/28 12:06:41;;;;;;;3.55;1.07;;;;;;;12.65;54.54;99831.64;2242607;78;20967;-72
2022/05/28 12:09:45;;;;;;;8.43;1.55;;;;;;;12.09;58.59;99819.67;2243628;78;21044;-72
2022/05/28 12:12:59;;;;;;;5.80;1.37;;;;;;;11.74;57.30;99815.03;2243019;78;21015;-72
2022/05/28 12:16:12;;;;;;;3.50;1.40;;;;;;;11.64;58.49;99838.72;2237723;77;21524;-72
2022/05/28 12:19:18;;;;;;;4.40;1.07;;;;;;;11.43;59.51;99837.23;2165193;80;21695;-72
2022/05/28 12:22:41;;;;;;;2.15;0.98;;;;;;;11.26;59.95;99823.77;2166745;80;21516;-72
2022/05/28 12:25:42;;;;;;;2.58;1.32;;;;;;;11.38;61.51;99820.53;2160509;80;21003;-72
2022/05/28 12:28:49;;;;;;;1.57;1.00;;;;;;;11.82;62.70;99822.93;2172668;80;21030;-72
2022/05/28 12:31:53;;;;;;;3.25;1.00;;;;;;;12.16;62.04;99818.42;2172686;80;21615;-73
2022/05/28 12:35:07;;;;;;;4.15;1.17;;;;;;;12.59;62.69;99812.44;2168673;80;20962;-73
2022/05/28 12:38:31;;;;;;;3.58;1.10;;;;;;;13.05;62.17;99806.77;2167224;80;21016;-73
2022/05/28 12:41:36;;;;;;;3.05;0.90;;;;;;;13.38;62.17;99783.11;2170897;80;21015;-75
2022/05/28 12:44:43;;;;;;;4.28;1.45;;;;;;;13.73;62.58;99787.97;2162564;80;21425;-73
2022/05/28 12:47:45;;;;;;;8.45;2.17;;;;;;;14.01;60.40;99780.44;2162520;80;21050;-72
2022/05/28 12:51:09;;;;;;;3.90;1.20;;;;;;;14.29;60.11;99782.52;2164934;80;21042;-75
2022/05/28 12:54:10;;;;;;;2.42;1.20;;;;;;;14.59;59.11;99759.56;2171498;80;21398;-74
2022/05/28 12:57:33;;;;;;;2.85;1.00;;;;;;;14.94;58.48;99768.77;2248831;78;21005;-74
2022/05/28 13:01:00;;;;;;;3.15;1.32;;;;;;;15.28;57.39;99772.28;2238516;77;21021;-75
2022/05/28 13:04:09;;;;;;;3.92;1.52;;;;;;;15.42;55.42;99764.04;2237482;77;20915;-75
2022/05/28 13:07:42;;;;;;;3.55;1.25;;;;;;;15.46;53.86;99758.61;2241389;77;21489;-75
2022/05/28 13:10:55;;;;;;;3.75;1.40;;;;;;;15.36;53.89;99762.72;2237099;78;21037;-74
2022/05/28 13:14:04;;;;;;;2.50;0.98;;;;;;;15.14;51.69;99756.75;2245671;78;21004;-73
2022/05/28 13:17:41;;;;;;;5.30;1.50;;;;;;;14.88;52.08;99758.90;2238877;78;21016;-74
2022/05/28 13:21:14;;;;;;;6.62;1.52;;;;;;;14.88;52.43;99765.58;2249669;77;21659;-73
2022/05/28 13:24:47;;;;;;;4.60;1.35;;;;;;;14.93;53.88;99760.45;2241472;78;21282;-79
2022/05/28 13:27:56;;;;;;;2.45;0.90;;;;;;;14.92;54.09;99774.81;2235638;78;21028;-76
2022/05/28 13:31:13;;;;;;;2.95;1.47;;;;;;;15.05;54.38;99785.53;2242818;78;21014;-77
2022/05/28 13:34:21;;;;;;;6.58;1.60;;;;;;;15.24;53.46;99782.05;2237147;78;21058;-78
2022/05/28 13:37:23;;;;;;;4.95;1.45;;;;;;;15.17;53.27;99774.53;2243440;78;21591;-78
2022/05/28 13:40:29;;;;;;;1.87;0.90;;;;;;;15.30;52.69;99764.37;2237940;78;21009;-78
2022/05/28 13:43:34;;;;;;;2.25;1.12;;;;;;;15.31;51.70;99782.03;2221452;78;21013;-78
2022/05/28 13:46:41;;;;;;;1.80;1.10;;;;;;;15.31;52.51;99792.73;2240275;78;20946;-79
2022/05/28 13:49:53;;;;;;;3.65;0.95;;;;;;;15.36;49.72;99780.09;2237698;78;21534;-76
2022/05/28 13:53:01;;;;;;;7.40;1.70;;;;;;;15.42;50.48;99783.27;2235988;78;20950;-79
2022/05/28 13:56:07;;;;;;;2.98;1.02;;;;;;;15.47;50.50;99775.47;2241348;77;21017;-79
2022/05/28 13:59:09;;;;;;;3.77;1.30;;;;;;;15.60;49.75;99774.64;2233236;78;21017;-75
2022/05/28 14:02:18;;;;;;;3.17;1.10;;;;;;;15.56;50.44;99770.72;2235039;78;21041;-79
2022/05/28 14:05:33;;;;;;;2.85;1.22;;;;;;;15.64;50.24;99769.17;2239119;78;21037;-79
2022/05/28 14:08:41;;;;;;;3.83;1.42;;;;;;;15.61;50.22;99773.60;2233775;78;20990;-76
2022/05/28 14:11:45;;;;;;;4.22;0.95;;;;;;;15.42;50.97;99790.78;2235171;78;21497;-80
2022/05/28 14:14:52;;;;;;;3.58;1.10;;;;;;;15.18;49.13;99789.55;2199489;78;20990;-79
2022/05/28 14:17:55;;;;;;;5.78;1.40;;;;;;;14.76;52.21;99826.27;2238270;77;20947;-79
2022/05/28 14:21:09;;;;;;;5.50;1.10;;;;;;;14.08;53.58;99853.34;2236436;78;21516;-74
2022/05/28 14:24:37;;;;;;;6.58;1.90;;;;;;;13.15;56.64;99872.52;2233448;78;21029;-74
2022/05/28 14:27:37;;;;;;;5.92;1.50;;;;;;;12.23;57.46;99903.66;2237529;78;21343;-75
2022/05/28 14:30:42;;;;;;;4.97;2.02;;;;;;;11.62;59.83;99915.64;2245195;78;21073;-72
2022/05/28 14:33:51;;;;;;;3.27;1.40;;;;;;;11.14;61.53;99899.87;2241610;78;21029;-75
2022/05/28 14:36:57;;;;;;;2.83;1.45;;;;;;;10.79;62.95;99913.19;2251460;77;20958;-74
2022/05/28 14:40:00;;;;;;;4.28;1.40;;;;;;;10.55;63.16;99902.16;2246115;77;21025;-73
2022/05/28 14:43:03;;;;;;;7.87;1.50;;;;;;;10.43;64.07;99894.26;2253184;77;21036;-75
2022/05/28 14:46:29;;;;;;;2.77;1.62;;;;;;;10.40;64.22;99865.42;2257273;77;21447;-75